Time;durP1;ratioP1;P1;durP2;ratioP2;P2;SDS_P1;SDS_P2;PMS_P1;PMS_P2;Temp;Humidity;BMP_temperature;BMP_pressure;BME280_temperature;BME280_humidity;BME280_pressure;Samples;Min_cycle;Max_cycle;Signal;HPM_P1;HPM_P2
2024/03/18 00:00:16;;;;;;;21.65;18.60;;;8.80;99.90;;;;;;5086900;28;20043;-80
2024/03/18 00:02:43;;;;;;;20.83;18.60;;;8.70;99.90;;;;;;5086693;27;20536;-80
2024/03/18 00:05:14;;;;;;;23.85;19.88;;;8.70;99.90;;;;;;5099024;28;20048;-80
2024/03/18 00:07:39;;;;;;;21.60;18.73;;;8.70;99.90;;;;;;5091481;27;20390;-80
2024/03/18 00:10:12;;;;;;;21.27;18.45;;;8.70;99.90;;;;;;5091599;27;20035;-81
2024/03/18 00:12:39;;;;;;;23.55;18.70;;;8.70;99.90;;;;;;5112559;27;20038;-81
2024/03/18 00:15:09;;;;;;;22.10;19.80;;;8.70;99.90;;;;;;5104962;27;20472;-82
2024/03/18 00:17:36;;;;;;;25.42;20.17;;;8.70;99.90;;;;;;5101959;27;20039;-80
2024/03/18 00:20:13;;;;;;;21.95;19.60;;;8.60;99.90;;;;;;5083439;28;20059;-81
2024/03/18 00:22:43;;;;;;;24.98;20.58;;;8.60;99.90;;;;;;5105716;27;20370;-81
2024/03/18 00:25:11;;;;;;;23.23;20.45;;;8.60;99.90;;;;;;5102615;28;20036;-82
2024/03/18 00:27:37;;;;;;;22.92;20.38;;;8.60;99.90;;;;;;5085070;27;20047;-81
2024/03/18 00:30:05;;;;;;;22.83;20.08;;;8.60;99.90;;;;;;5087977;27;20107;-80
2024/03/18 00:32:31;;;;;;;23.13;19.98;;;8.60;99.90;;;;;;5103397;27;20059;-81
2024/03/18 00:34:58;;;;;;;24.50;21.38;;;8.50;99.90;;;;;;5087455;28;21048;-81
2024/03/18 00:37:24;;;;;;;24.27;20.98;;;8.50;99.90;;;;;;5107215;27;20047;-81
2024/03/18 00:39:49;;;;;;;24.27;20.90;;;8.50;99.90;;;;;;5103366;27;20414;-80
2024/03/18 00:42:16;;;;;;;25.50;21.33;;;8.50;99.90;;;;;;5085177;27;20501;-83
2024/03/18 00:44:41;;;;;;;23.60;21.10;;;8.50;99.90;;;;;;5102358;27;20252;-81
2024/03/18 00:47:07;;;;;;;24.90;22.20;;;8.50;99.90;;;;;;5084489;28;20046;-81
2024/03/18 00:49:33;;;;;;;27.58;19.95;;;8.50;99.90;;;;;;5086030;27;20031;-81
2024/03/18 00:51:59;;;;;;;23.95;19.83;;;8.40;99.90;;;;;;5097822;27;20434;-82
2024/03/18 00:54:25;;;;;;;24.77;20.95;;;8.40;99.90;;;;;;5091477;28;20409;-81
2024/03/18 00:56:51;;;;;;;24.27;21.65;;;8.50;99.90;;;;;;5098307;27;21933;-80
2024/03/18 00:59:18;;;;;;;24.75;20.77;;;8.40;99.90;;;;;;5100515;27;20486;-81
2024/03/18 01:01:44;;;;;;;23.40;20.35;;;8.40;99.90;;;;;;5090110;28;20039;-82
2024/03/18 01:04:10;;;;;;;22.73;20.33;;;8.40;99.90;;;;;;5084619;28;20521;-82
2024/03/18 01:06:36;;;;;;;23.60;20.33;;;8.40;99.90;;;;;;5098691;28;20035;-81
2024/03/18 01:09:04;;;;;;;26.33;21.00;;;8.40;99.90;;;;;;5088571;27;20035;-81
2024/03/18 01:11:29;;;;;;;23.42;20.88;;;8.40;99.90;;;;;;5104511;27;20040;-82
2024/03/18 01:13:55;;;;;;;23.38;20.92;;;8.40;99.90;;;;;;5090419;28;20059;-82
2024/03/18 01:16:24;;;;;;;23.27;20.52;;;8.50;99.90;;;;;;5102878;28;20043;-81
2024/03/18 01:18:51;;;;;;;22.73;20.30;;;8.40;99.90;;;;;;5096133;28;20051;-81
2024/03/18 01:21:18;;;;;;;23.73;21.27;;;8.40;99.90;;;;;;5094456;27;20046;-81
2024/03/18 01:23:48;;;;;;;23.92;21.08;;;8.50;99.90;;;;;;5082446;28;20036;-81
2024/03/18 01:26:14;;;;;;;22.70;20.20;;;8.40;99.90;;;;;;5105789;27;20036;-80
2024/03/18 01:28:40;;;;;;;22.33;20.00;;;8.40;99.90;;;;;;5096571;28;20096;-81
2024/03/18 01:31:06;;;;;;;23.83;21.10;;;8.50;99.90;;;;;;5101281;27;20039;-80
2024/03/18 01:33:32;;;;;;;22.52;20.20;;;8.40;99.90;;;;;;5087808;28;20244;-81
2024/03/18 01:35:59;;;;;;;22.15;19.95;;;8.40;99.90;;;;;;5103571;28;20374;-81
2024/03/18 01:38:25;;;;;;;23.23;20.77;;;8.40;99.90;;;;;;5097142;28;20632;-81
2024/03/18 01:40:55;;;;;;;23.92;21.30;;;8.40;99.90;;;;;;5110006;28;20074;-80
2024/03/18 01:43:23;;;;;;;23.23;20.83;;;8.40;99.90;;;;;;5104407;28;20051;-81
2024/03/18 01:45:48;;;;;;;24.13;21.33;;;8.40;99.90;;;;;;5082719;28;20764;-81
2024/03/18 01:48:14;;;;;;;25.10;22.50;;;8.40;99.90;;;;;;5100748;28;20044;-81
2024/03/18 01:50:41;;;;;;;24.52;21.95;;;8.40;99.90;;;;;;5101244;28;20040;-82
2024/03/18 01:53:11;;;;;;;26.00;21.80;;;8.40;99.90;;;;;;5088726;28;20040;-81
2024/03/18 01:55:38;;;;;;;25.05;22.38;;;8.40;99.90;;;;;;5084406;28;20040;-81
2024/03/18 01:58:05;;;;;;;26.23;23.38;;;8.30;99.90;;;;;;5081690;28;20097;-80
2024/03/18 02:00:35;;;;;;;28.45;23.40;;;8.30;99.90;;;;;;5096204;28;20100;-81
2024/03/18 02:03:06;;;;;;;;;;;8.30;99.90;;;;;;5091439;28;20452;-81
2024/03/18 02:05:33;;;;;;;30.42;24.92;;;8.30;99.90;;;;;;5114821;28;19927;-81
2024/03/18 02:07:59;;;;;;;27.98;24.50;;;8.20;99.90;;;;;;5098999;28;20043;-81
2024/03/18 02:10:25;;;;;;;29.50;25.63;;;8.20;99.90;;;;;;5083448;28;20114;-81
2024/03/18 02:13:04;;;;;;;31.27;25.05;;;8.20;99.90;;;;;;5111689;28;20047;-82
2024/03/18 02:15:34;;;;;;;31.02;26.48;;;8.30;99.90;;;;;;5072221;28;20067;-81
2024/03/18 02:18:00;;;;;;;32.70;27.25;;;8.10;99.90;;;;;;5084765;28;20054;-82
2024/03/18 02:20:27;;;;;;;29.90;25.75;;;8.20;99.90;;;;;;5082700;28;20672;-82
2024/03/18 02:22:52;;;;;;;30.90;26.73;;;8.10;99.90;;;;;;5100652;28;20070;-81
2024/03/18 02:25:20;;;;;;;31.60;26.25;;;8.10;99.90;;;;;;5089844;28;20320;-82
2024/03/18 02:27:46;;;;;;;34.85;28.05;;;8.10;99.90;;;;;;5102225;28;20039;-81
2024/03/18 02:30:12;;;;;;;32.35;27.30;;;8.10;99.90;;;;;;5079076;28;20611;-81
2024/03/18 02:32:41;;;;;;;33.03;27.85;;;8.10;99.90;;;;;;5105551;28;20066;-82
2024/03/18 02:35:09;;;;;;;35.47;27.92;;;8.10;99.90;;;;;;5096504;28;20054;-82
2024/03/18 02:37:35;;;;;;;34.65;27.58;;;8.10;99.90;;;;;;5093996;28;20043;-81
2024/03/18 02:40:01;;;;;;;30.75;27.45;;;8.10;99.90;;;;;;5090042;28;20043;-81
2024/03/18 02:42:27;;;;;;;34.28;28.63;;;8.10;99.90;;;;;;5085278;28;20056;-83
2024/03/18 02:44:53;;;;;;;32.88;28.25;;;8.10;99.90;;;;;;5090492;27;20051;-81
2024/03/18 02:47:18;;;;;;;34.55;27.95;;;8.10;99.90;;;;;;5112194;27;20439;-81
2024/03/18 02:49:44;;;;;;;33.70;27.05;;;8.10;99.90;;;;;;5110955;27;20039;-82
2024/03/18 02:52:10;;;;;;;33.38;27.95;;;8.10;99.90;;;;;;5101058;27;20079;-81
2024/03/18 02:54:35;;;;;;;32.28;28.45;;;8.10;99.90;;;;;;5111324;27;20058;-81
2024/03/18 02:57:01;;;;;;;34.25;29.85;;;8.10;99.90;;;;;;5112167;27;20048;-82
2024/03/18 02:59:27;;;;;;;34.10;28.77;;;8.10;99.90;;;;;;5095505;27;20040;-81
2024/03/18 03:01:53;;;;;;;32.85;29.08;;;8.00;99.90;;;;;;5086539;28;20046;-81
2024/03/18 03:04:18;;;;;;;33.08;27.67;;;8.10;99.90;;;;;;5096217;28;20520;-82
2024/03/18 03:06:44;;;;;;;33.28;28.45;;;8.10;99.90;;;;;;5083429;28;20274;-81
2024/03/18 03:09:11;;;;;;;33.90;29.58;;;8.10;99.90;;;;;;5091287;28;20040;-81
2024/03/18 03:11:37;;;;;;;32.80;29.25;;;8.10;99.90;;;;;;5092621;27;20047;-81
2024/03/18 03:14:03;;;;;;;33.15;28.90;;;8.10;99.90;;;;;;5113391;27;20073;-80
2024/03/18 03:16:29;;;;;;;34.42;29.10;;;8.00;99.90;;;;;;5086376;28;20058;-80
2024/03/18 03:18:55;;;;;;;31.52;28.05;;;8.00;99.90;;;;;;5098759;27;20039;-81
2024/03/18 03:21:24;;;;;;;38.22;30.55;;;8.00;99.90;;;;;;5089457;28;20756;-81
2024/03/18 03:23:50;;;;;;;33.30;29.38;;;8.00;99.90;;;;;;5096820;27;20054;-81
2024/03/18 03:26:16;;;;;;;34.67;29.80;;;8.00;99.90;;;;;;5103008;27;20463;-81
2024/03/18 03:28:42;;;;;;;36.33;30.75;;;8.00;99.90;;;;;;5085595;28;20048;-82
2024/03/18 03:31:08;;;;;;;38.83;31.27;;;8.00;99.90;;;;;;5080333;27;20406;-81
2024/03/18 03:33:35;;;;;;;35.28;30.73;;;8.00;99.90;;;;;;5090324;27;20043;-81
2024/03/18 03:36:01;;;;;;;36.95;30.40;;;8.00;99.90;;;;;;5093902;28;20385;-80
2024/03/18 03:38:27;;;;;;;36.97;31.23;;;8.00;99.90;;;;;;5088723;28;20135;-81
2024/03/18 03:40:53;;;;;;;41.97;32.33;;;8.00;99.90;;;;;;5108915;27;20396;-81
2024/03/18 03:43:21;;;;;;;40.22;31.75;;;8.00;99.90;;;;;;5104516;27;20543;-81
2024/03/18 03:45:58;;;;;;;37.10;31.40;;;8.00;99.90;;;;;;5083934;28;20046;-81
2024/03/18 03:48:27;;;;;;;37.88;32.50;;;8.10;99.90;;;;;;5107668;27;20134;-80
2024/03/18 03:50:54;;;;;;;39.38;32.20;;;8.00;99.90;;;;;;5083479;28;20527;-81
2024/03/18 03:53:21;;;;;;;40.13;33.55;;;8.10;99.90;;;;;;5089194;28;20444;-81
2024/03/18 03:55:57;;;;;;;42.03;32.65;;;8.00;99.90;;;;;;5105014;27;20396;-81
2024/03/18 03:58:24;;;;;;;41.55;33.22;;;8.00;99.90;;;;;;5090787;27;20497;-82
2024/03/18 04:00:52;;;;;;;38.13;33.05;;;8.10;99.90;;;;;;5103240;27;20043;-81
2024/03/18 04:03:19;;;;;;;38.25;32.15;;;8.00;99.90;;;;;;5095491;27;20047;-82
2024/03/18 04:05:45;;;;;;;45.97;35.47;;;8.00;99.90;;;;;;5111790;27;20052;-81
2024/03/18 04:08:11;;;;;;;38.88;32.50;;;8.00;99.90;;;;;;5087055;27;20040;-82
2024/03/18 04:10:38;;;;;;;41.08;34.22;;;8.00;99.90;;;;;;5105249;27;20038;-81
2024/03/18 04:13:04;;;;;;;38.90;33.75;;;8.00;99.90;;;;;;5087093;27;20031;-82
2024/03/18 04:15:30;;;;;;;44.67;35.92;;;8.00;99.90;;;;;;5088638;28;20054;-81
2024/03/18 04:17:56;;;;;;;40.13;33.42;;;8.10;99.90;;;;;;5085630;28;20138;-83
2024/03/18 04:20:22;;;;;;;44.42;35.55;;;8.10;99.90;;;;;;5109030;27;20113;-82
2024/03/18 04:22:50;;;;;;;44.75;36.40;;;8.10;99.90;;;;;;5084504;27;20046;-81
2024/03/18 04:25:17;;;;;;;44.00;35.53;;;8.10;99.90;;;;;;5108057;27;20051;-81
2024/03/18 04:27:43;;;;;;;49.75;37.25;;;8.10;99.90;;;;;;5113507;27;20242;-81
2024/03/18 04:30:18;;;;;;;46.67;37.72;;;8.00;99.90;;;;;;5107973;27;20036;-82
2024/03/18 04:32:50;;;;;;;44.90;36.90;;;8.00;99.90;;;;;;5107004;27;20529;-82
2024/03/18 04:35:19;;;;;;;48.58;38.42;;;8.10;99.90;;;;;;5100765;28;20036;-81
2024/03/18 04:37:46;;;;;;;45.38;38.67;;;8.10;99.90;;;;;;5084732;28;20036;-82
2024/03/18 04:40:16;;;;;;;46.55;37.60;;;8.00;99.90;;;;;;5098932;27;20044;-82
2024/03/18 04:42:42;;;;;;;;;;;8.00;99.90;;;;;;5100200;28;20039;-81
2024/03/18 04:45:09;;;;;;;48.75;38.35;;;8.00;99.90;;;;;;5101468;27;19924;-82
2024/03/18 04:47:40;;;;;;;51.72;39.85;;;8.00;99.90;;;;;;5093205;28;20082;-81
2024/03/18 04:50:08;;;;;;;52.28;40.13;;;8.10;99.90;;;;;;5080679;28;20173;-81
2024/03/18 04:52:35;;;;;;;56.05;40.55;;;8.00;99.90;;;;;;5101242;28;20044;-83
2024/03/18 04:55:05;;;;;;;48.70;37.45;;;8.00;99.90;;;;;;5094768;27;21319;-82
2024/03/18 04:57:32;;;;;;;51.38;38.92;;;8.00;99.90;;;;;;5104138;27;20040;-82
2024/03/18 04:59:58;;;;;;;49.80;38.72;;;8.00;99.90;;;;;;5110952;27;20043;-82
2024/03/18 05:02:24;;;;;;;53.58;39.03;;;8.00;99.90;;;;;;5081532;28;20414;-81
2024/03/18 05:04:51;;;;;;;54.47;40.05;;;8.00;99.90;;;;;;5074506;28;20040;-82
2024/03/18 05:07:17;;;;;;;55.85;41.13;;;8.00;99.90;;;;;;5090971;28;20079;-82
2024/03/18 05:09:44;;;;;;;55.05;41.72;;;8.00;99.90;;;;;;5086305;28;20044;-81
2024/03/18 05:12:10;;;;;;;52.05;39.15;;;8.00;99.90;;;;;;5089001;28;20138;-81
2024/03/18 05:14:37;;;;;;;54.50;41.00;;;8.00;99.90;;;;;;5086460;28;20072;-82
2024/03/18 05:17:03;;;;;;;56.40;38.78;;;8.00;99.90;;;;;;5086266;28;20115;-82
2024/03/18 05:19:28;;;;;;;57.42;40.67;;;8.00;99.90;;;;;;5092017;28;20534;-82
2024/03/18 05:21:54;;;;;;;56.58;40.53;;;8.00;99.90;;;;;;5087262;28;20394;-83
2024/03/18 05:24:20;;;;;;;57.45;41.03;;;8.00;99.90;;;;;;5090178;28;20071;-82
2024/03/18 05:26:47;;;;;;;57.60;40.63;;;8.00;99.90;;;;;;5092442;28;20063;-83
2024/03/18 05:29:12;;;;;;;56.30;40.67;;;8.00;99.90;;;;;;5087880;28;20048;-83
2024/03/18 05:31:39;;;;;;;57.47;41.08;;;7.90;99.90;;;;;;5088745;28;20562;-82
2024/03/18 05:34:06;;;;;;;61.22;41.80;;;8.00;99.90;;;;;;5070071;28;20128;-83
2024/03/18 05:36:35;;;;;;;62.53;41.67;;;8.00;99.90;;;;;;5077462;28;20109;-82
2024/03/18 05:39:00;;;;;;;65.50;42.25;;;8.10;99.90;;;;;;5092263;28;20514;-84
2024/03/18 05:41:26;;;;;;;65.97;43.47;;;8.00;99.90;;;;;;5086135;28;20146;-83
2024/03/18 05:43:52;;;;;;;64.82;41.95;;;8.00;99.90;;;;;;5082827;28;20070;-83
2024/03/18 05:46:18;;;;;;;66.07;42.00;;;8.10;99.90;;;;;;5091078;28;20051;-83
2024/03/18 05:48:44;;;;;;;58.67;40.95;;;8.10;99.90;;;;;;5087174;28;20036;-83
2024/03/18 05:51:10;;;;;;;66.82;44.08;;;8.10;99.90;;;;;;5080901;28;20032;-83
2024/03/18 05:53:36;;;;;;;71.60;45.03;;;8.10;99.90;;;;;;5093262;28;20036;-84
2024/03/18 05:56:02;;;;;;;68.78;44.63;;;8.10;99.90;;;;;;5075331;28;20097;-84
2024/03/18 05:58:29;;;;;;;69.00;45.08;;;8.10;99.90;;;;;;5077021;28;20482;-82
2024/03/18 06:00:54;;;;;;;73.90;46.50;;;8.10;99.90;;;;;;5079310;28;20040;-82
2024/03/18 06:03:20;;;;;;;70.93;44.58;;;8.10;99.90;;;;;;5087160;28;20047;-84
2024/03/18 06:05:46;;;;;;;72.65;43.65;;;8.10;99.90;;;;;;5098990;28;20824;-84
2024/03/18 06:08:12;;;;;;;70.82;43.42;;;8.10;99.90;;;;;;5091550;28;20094;-83
2024/03/18 06:10:37;;;;;;;71.38;43.30;;;8.10;99.90;;;;;;5083226;28;20044;-83
2024/03/18 06:13:03;;;;;;;69.18;42.88;;;8.10;99.90;;;;;;5104237;28;20032;-82
2024/03/18 06:15:29;;;;;;;77.93;46.60;;;8.10;99.90;;;;;;5091266;28;20069;-84
2024/03/18 06:17:55;;;;;;;81.13;45.65;;;8.10;99.90;;;;;;5111335;27;20502;-83
2024/03/18 06:20:21;;;;;;;72.15;45.13;;;8.10;99.90;;;;;;5105841;27;20048;-83
2024/03/18 06:22:49;;;;;;;77.22;46.38;;;8.20;99.90;;;;;;5088711;28;20036;-83
2024/03/18 06:27:58;;;;;;;88.25;48.42;;;8.20;99.90;;;;;;5103009;27;20035;-84
2024/03/18 06:30:24;;;;;;;84.68;47.70;;;8.20;99.90;;;;;;5113678;27;20040;-83
2024/03/18 06:32:50;;;;;;;74.22;47.38;;;8.20;99.90;;;;;;5105906;27;20043;-83
2024/03/18 06:35:16;;;;;;;82.40;47.60;;;8.20;99.90;;;;;;5091761;28;20043;-82
2024/03/18 06:37:42;;;;;;;93.45;48.28;;;8.20;99.90;;;;;;5091673;27;20101;-84
2024/03/18 06:40:11;;;;;;;83.55;47.78;;;8.30;99.90;;;;;;5085592;28;20050;-82
2024/03/18 06:42:37;;;;;;;81.88;45.80;;;8.30;99.90;;;;;;5086937;27;20592;-83
2024/03/18 06:45:03;;;;;;;87.90;47.97;;;8.30;99.90;;;;;;5094950;27;20032;-83
2024/03/18 06:47:29;;;;;;;84.40;47.40;;;8.30;99.90;;;;;;5086924;28;20039;-84
2024/03/18 06:49:55;;;;;;;91.53;48.70;;;8.30;99.90;;;;;;5095705;28;20521;-83
2024/03/18 06:52:20;;;;;;;90.82;48.33;;;8.30;99.90;;;;;;5100819;27;20075;-84
2024/03/18 06:54:46;;;;;;;82.70;47.05;;;8.30;99.90;;;;;;5103097;27;20483;-83
2024/03/18 06:57:13;;;;;;;89.18;47.30;;;8.20;99.90;;;;;;5089081;27;20043;-84
2024/03/18 06:59:39;;;;;;;77.97;45.85;;;8.30;99.90;;;;;;5090250;28;20043;-83
2024/03/18 07:02:04;;;;;;;88.10;49.08;;;8.30;99.90;;;;;;5092414;27;20557;-83
2024/03/18 07:04:34;;;;;;;95.57;46.88;;;8.40;99.90;;;;;;5083517;27;20043;-82
2024/03/18 07:06:59;;;;;;;92.25;49.28;;;8.40;99.90;;;;;;5107448;27;20085;-83
2024/03/18 07:09:25;;;;;;;95.65;49.72;;;8.40;99.90;;;;;;5098587;27;20132;-82
2024/03/18 07:11:51;;;;;;;98.20;48.45;;;8.40;99.90;;;;;;5095817;27;20034;-83
2024/03/18 07:14:20;;;;;;;109.88;51.50;;;8.50;99.90;;;;;;5087761;28;20032;-82
2024/03/18 07:16:45;;;;;;;105.82;50.83;;;8.50;99.90;;;;;;5096521;28;20062;-82
2024/03/18 07:19:11;;;;;;;98.00;50.15;;;8.40;99.90;;;;;;5106611;27;20823;-81
2024/03/18 07:21:38;;;;;;;109.85;50.35;;;8.50;99.90;;;;;;5099907;27;20430;-82
2024/03/18 07:24:04;;;;;;;108.57;52.20;;;8.50;99.90;;;;;;5091534;28;20067;-83
2024/03/18 07:26:31;;;;;;;104.78;52.15;;;8.50;99.90;;;;;;5080223;27;20036;-82
2024/03/18 07:28:56;;;;;;;108.65;52.80;;;8.50;99.90;;;;;;5105145;27;20488;-83
2024/03/18 07:31:22;;;;;;;103.05;50.15;;;8.50;99.90;;;;;;5095294;27;20046;-82
2024/03/18 07:33:48;;;;;;;100.28;51.33;;;8.50;99.90;;;;;;5105878;27;20048;-83
2024/03/18 07:36:14;;;;;;;112.88;54.00;;;8.50;99.90;;;;;;5086105;28;20047;-82
2024/03/18 07:38:39;;;;;;;99.90;52.17;;;8.60;99.90;;;;;;5099811;27;20050;-83
2024/03/18 07:41:05;;;;;;;106.18;51.15;;;8.60;99.90;;;;;;5107690;27;20120;-82
2024/03/18 07:43:31;;;;;;;98.03;52.30;;;8.60;99.90;;;;;;5091593;27;20050;-83
2024/03/18 07:45:57;;;;;;;116.68;54.35;;;8.70;99.90;;;;;;5105671;27;20055;-82
2024/03/18 07:48:26;;;;;;;105.75;53.83;;;8.60;99.90;;;;;;5110271;27;20921;-83
2024/03/18 07:50:56;;;;;;;115.95;53.47;;;8.60;99.90;;;;;;5086478;28;20496;-80
2024/03/18 07:53:22;;;;;;;114.68;54.67;;;8.70;99.90;;;;;;5092877;27;20050;-82
2024/03/18 07:55:47;;;;;;;107.97;53.20;;;8.70;99.90;;;;;;5084975;28;20039;-82
2024/03/18 07:58:13;;;;;;;121.80;57.38;;;8.60;99.90;;;;;;5100665;27;20047;-81
2024/03/18 08:00:39;;;;;;;123.25;53.88;;;8.70;99.90;;;;;;5099971;27;20050;-81
2024/03/18 08:03:05;;;;;;;123.63;54.67;;;8.80;99.90;;;;;;5103730;27;20105;-82
2024/03/18 08:05:30;;;;;;;127.22;55.75;;;8.80;99.90;;;;;;5109210;27;20130;-81
2024/03/18 08:07:56;;;;;;;114.75;54.42;;;8.80;99.90;;;;;;5103896;27;20051;-81
2024/03/18 08:10:22;;;;;;;112.05;56.20;;;8.80;99.90;;;;;;5103420;27;20409;-80
2024/03/18 08:12:48;;;;;;;100.22;53.58;;;8.90;99.90;;;;;;5109072;27;20072;-80
2024/03/18 08:15:15;;;;;;;101.57;54.63;;;8.90;99.90;;;;;;5084615;27;20401;-81
2024/03/18 08:17:42;;;;;;;107.53;58.97;;;9.00;99.90;;;;;;5094080;27;20050;-78
2024/03/18 08:20:09;;;;;;;103.60;53.75;;;9.00;99.90;;;;;;5091338;28;20039;-82
2024/03/18 08:22:35;;;;;;;109.78;54.42;;;9.10;99.90;;;;;;5085441;27;20054;-80
2024/03/18 08:25:02;;;;;;;106.75;55.67;;;9.10;99.90;;;;;;5084562;28;20040;-80
2024/03/18 08:27:32;;;;;;;117.90;57.10;;;9.20;99.90;;;;;;5090626;27;20042;-81
2024/03/18 08:29:58;;;;;;;107.90;56.60;;;9.20;99.90;;;;;;5108783;27;20036;-81
2024/03/18 08:32:24;;;;;;;109.85;55.20;;;9.40;99.90;;;;;;5096674;28;20256;-81
2024/03/18 08:34:50;;;;;;;120.90;56.50;;;9.30;99.90;;;;;;5090966;28;20124;-81
2024/03/18 08:37:19;;;;;;;115.30;55.50;;;9.30;99.90;;;;;;5098538;27;20032;-80
2024/03/18 08:39:46;;;;;;;98.47;52.97;;;9.30;99.90;;;;;;5113410;27;20137;-82
2024/03/18 08:42:11;;;;;;;106.45;55.65;;;9.40;99.90;;;;;;5088368;28;20332;-82
2024/03/18 08:44:37;;;;;;;98.88;53.85;;;9.40;99.90;;;;;;5085298;28;20494;-82
2024/03/18 08:47:04;;;;;;;105.85;55.38;;;9.40;99.90;;;;;;5097204;28;20203;-81
2024/03/18 08:49:31;;;;;;;110.75;55.13;;;9.40;99.90;;;;;;5085503;28;20130;-81
2024/03/18 08:51:56;;;;;;;105.78;52.90;;;9.50;99.90;;;;;;5081067;28;20043;-81
2024/03/18 08:54:22;;;;;;;98.72;50.75;;;9.40;99.90;;;;;;5087271;27;20053;-80
2024/03/18 08:56:48;;;;;;;103.70;53.67;;;9.50;99.90;;;;;;5110442;27;20036;-82
2024/03/18 08:59:14;;;;;;;106.72;56.35;;;9.50;99.90;;;;;;5091840;28;20039;-81
2024/03/18 09:01:40;;;;;;;102.78;54.53;;;9.50;99.90;;;;;;5087699;28;20044;-81
2024/03/18 09:04:09;;;;;;;104.72;54.42;;;9.50;99.90;;;;;;5105910;27;20684;-81
2024/03/18 09:06:34;;;;;;;110.47;54.90;;;9.50;99.90;;;;;;5083959;27;20130;-79
2024/03/18 10:29:59;;;;;;;110.53;58.83;;;10.20;99.90;;;;;;5093924;27;20530;-79
2024/03/18 10:32:28;;;;;;;106.22;57.15;;;10.40;99.90;;;;;;5053727;28;20063;-78
2024/03/18 10:35:01;;;;;;;103.85;54.42;;;10.40;99.90;;;;;;5088524;28;20044;-79
2024/03/18 10:37:32;;;;;;;112.60;58.15;;;10.40;99.90;;;;;;5062811;28;20047;-80
2024/03/18 10:40:11;;;;;;;110.78;56.97;;;10.40;99.90;;;;;;5067210;28;20045;-79
2024/03/18 10:42:43;;;;;;;88.22;51.20;;;10.40;99.90;;;;;;5078928;28;20079;-79
2024/03/18 10:45:17;;;;;;;93.30;53.35;;;10.40;99.90;;;;;;5064282;28;20131;-79
2024/03/18 10:47:44;;;;;;;83.20;48.45;;;10.40;99.90;;;;;;5058806;28;20504;-78
2024/03/18 10:50:14;;;;;;;88.25;49.17;;;10.40;99.90;;;;;;5063025;28;20495;-76
2024/03/18 10:52:40;;;;;;;85.18;45.58;;;10.40;99.90;;;;;;5067476;28;20521;-78
2024/03/18 10:55:18;;;;;;;82.07;49.83;;;10.50;99.90;;;;;;5091246;28;20058;-80
2024/03/18 10:57:46;;;;;;;88.38;52.40;;;10.60;99.90;;;;;;5070271;28;20119;-79
2024/03/18 11:00:17;;;;;;;82.72;49.42;;;10.60;99.90;;;;;;5049334;28;20044;-79
2024/03/18 11:03:01;;;;;;;81.13;51.15;;;10.80;99.90;;;;;;5049522;28;20040;-80
2024/03/18 11:05:29;;;;;;;82.15;49.90;;;10.90;99.90;;;;;;5051903;28;20119;-80
2024/03/18 11:08:00;;;;;;;75.43;49.80;;;11.10;99.90;;;;;;5075508;28;20044;-79
2024/03/18 11:10:30;;;;;;;78.18;50.15;;;11.20;99.90;;;;;;5056544;28;20040;-80
2024/03/18 11:13:20;;;;;;;78.88;50.35;;;11.30;99.90;;;;;;5086751;28;20056;-80
2024/03/18 11:15:55;;;;;;;75.50;49.20;;;11.40;99.90;;;;;;5052495;28;20377;-80
2024/03/18 11:18:26;;;;;;;71.00;49.58;;;11.40;99.90;;;;;;5087373;28;20591;-80
2024/03/18 11:21:02;;;;;;;63.17;44.05;;;11.60;99.90;;;;;;5049144;28;20041;-81
2024/03/18 11:23:32;;;;;;;58.38;42.35;;;11.70;99.90;;;;;;5062891;28;20044;-81
2024/03/18 11:26:05;;;;;;;;;;;11.90;99.90;;;;;;5064187;28;20064;-80
2024/03/18 11:28:37;;;;;;;53.60;40.78;;;11.90;99.90;;;;;;5069200;28;19925;-81
2024/03/18 11:31:04;;;;;;;54.33;43.22;;;12.10;99.90;;;;;;5037713;28;20045;-81
2024/03/18 11:33:33;;;;;;;45.30;36.42;;;12.10;99.90;;;;;;5047798;28;20045;-81
2024/03/18 11:36:05;;;;;;;46.28;36.17;;;12.10;99.90;;;;;;5047845;28;20072;-81
2024/03/18 11:38:32;;;;;;;46.60;36.55;;;12.20;99.90;;;;;;5056493;28;20114;-81
2024/03/18 11:41:04;;;;;;;45.50;35.95;;;12.20;99.90;;;;;;5052897;28;20583;-81
2024/03/18 11:43:34;;;;;;;45.90;34.65;;;12.20;99.90;;;;;;5073916;28;20137;-81
2024/03/18 11:46:00;;;;;;;;;;;12.20;99.90;;;;;;5056030;28;20087;-81
2024/03/18 11:48:28;;;;;;;40.33;33.17;;;12.20;99.90;;;;;;5055334;28;20014;-81
2024/03/18 11:50:54;;;;;;;39.30;33.70;;;12.20;99.90;;;;;;5035052;28;20051;-81
2024/03/18 11:53:20;;;;;;;38.10;32.22;;;12.20;99.90;;;;;;5044254;28;20049;-81
2024/03/18 11:55:54;;;;;;;42.53;34.88;;;12.10;99.90;;;;;;5044061;28;20076;-81
2024/03/18 11:58:21;;;;;;;45.33;33.45;;;12.10;99.90;;;;;;5040160;28;20049;-81
2024/03/18 12:00:48;;;;;;;40.38;32.40;;;12.10;99.90;;;;;;5036559;28;20045;-81
2024/03/18 12:03:17;;;;;;;41.08;33.38;;;12.10;99.90;;;;;;5035241;28;20067;-79
2024/03/18 12:05:44;;;;;;;40.50;32.70;;;12.20;99.90;;;;;;5077459;28;20099;-80
2024/03/18 12:08:22;;;;;;;40.50;32.72;;;12.20;99.90;;;;;;5049864;28;20128;-80
2024/03/18 12:10:54;;;;;;;42.28;34.20;;;12.20;99.90;;;;;;5048875;28;20093;-80
2024/03/18 12:13:27;;;;;;;43.53;34.72;;;12.20;99.90;;;;;;5067018;28;20484;-79
2024/03/18 12:15:54;;;;;;;40.97;33.08;;;12.20;99.90;;;;;;5087102;28;20048;-80
2024/03/18 12:18:20;;;;;;;41.03;33.58;;;12.20;99.90;;;;;;5066842;28;20353;-80
2024/03/18 12:20:55;;;;;;;41.85;35.00;;;12.20;99.90;;;;;;5055604;28;20041;-80
2024/03/18 12:29:04;;;;;;;33.67;24.40;;;12.20;99.90;;;;;;5051559;28;20106;-80
2024/03/18 12:31:33;;;;;;;32.00;24.38;;;12.20;99.90;;;;;;5033429;28;20609;-80
2024/03/18 12:34:00;;;;;;;33.43;25.83;;;12.20;99.90;;;;;;5065446;28;20126;-80
2024/03/18 12:36:26;;;;;;;29.00;24.25;;;12.10;99.90;;;;;;5060773;28;20375;-80
2024/03/18 12:38:54;;;;;;;34.30;25.27;;;12.10;99.90;;;;;;5048880;28;20046;-80
2024/03/18 12:41:22;;;;;;;30.38;25.50;;;12.10;99.90;;;;;;5033935;28;20102;-81
2024/03/18 12:43:48;;;;;;;33.95;25.48;;;12.10;99.90;;;;;;5035238;28;20073;-81
2024/03/18 12:46:16;;;;;;;30.00;22.83;;;12.10;99.90;;;;;;5049354;28;20135;-80
2024/03/18 12:48:43;;;;;;;30.70;22.65;;;12.10;99.90;;;;;;5041937;28;20044;-80
2024/03/18 12:51:19;;;;;;;30.02;21.30;;;12.10;99.90;;;;;;5042177;28;20045;-80
2024/03/18 12:53:46;;;;;;;26.88;21.48;;;12.10;99.90;;;;;;5057067;28;20045;-80
2024/03/18 12:56:13;;;;;;;32.45;22.50;;;12.10;99.90;;;;;;5049931;28;20499;-80
2024/03/18 12:58:38;;;;;;;29.30;22.13;;;12.10;99.90;;;;;;5056314;28;20041;-80
2024/03/18 13:01:06;;;;;;;33.13;23.83;;;12.00;99.90;;;;;;5051450;28;20053;-79
2024/03/18 13:03:32;;;;;;;32.50;24.60;;;12.00;99.90;;;;;;5049125;28;20062;-80
2024/03/18 13:05:59;;;;;;;30.77;23.63;;;12.10;99.90;;;;;;5077778;28;20516;-81
2024/03/18 13:08:26;;;;;;;34.45;23.70;;;12.10;99.90;;;;;;5052091;28;20060;-80
2024/03/18 13:10:52;;;;;;;32.40;24.67;;;12.10;99.90;;;;;;5036179;28;20044;-80
2024/03/18 13:13:25;;;;;;;32.92;22.90;;;12.20;99.90;;;;;;5050347;28;20052;-78
2024/03/18 13:15:51;;;;;;;30.05;24.73;;;12.30;99.90;;;;;;5042439;28;20395;-79
2024/03/18 13:18:17;;;;;;;31.45;25.15;;;12.30;99.90;;;;;;5059082;28;20044;-79
2024/03/18 13:20:43;;;;;;;34.40;25.85;;;12.50;99.90;;;;;;5042653;28;20041;-79
2024/03/18 13:23:11;;;;;;;36.47;28.77;;;12.60;99.90;;;;;;5060974;28;20067;-79
2024/03/18 13:25:43;;;;;;;41.38;28.17;;;12.70;99.90;;;;;;5051190;28;20044;-79
2024/03/18 13:28:09;;;;;;;43.63;29.55;;;12.70;99.90;;;;;;5046788;28;20036;-79
2024/03/18 13:30:36;;;;;;;40.78;30.25;;;12.80;99.90;;;;;;5060481;28;20039;-79
2024/03/18 13:33:02;;;;;;;38.60;28.17;;;12.80;99.90;;;;;;5046505;28;20052;-79
2024/03/18 13:35:27;;;;;;;40.58;30.13;;;12.90;99.90;;;;;;5076982;28;20199;-79
2024/03/18 13:37:53;;;;;;;45.03;31.50;;;13.00;99.90;;;;;;5049992;28;20298;-80
2024/03/18 13:40:20;;;;;;;43.08;31.52;;;13.00;99.90;;;;;;5056040;28;20044;-79
2024/03/18 13:42:51;;;;;;;47.65;31.35;;;13.10;99.90;;;;;;5061880;28;20519;-81
2024/03/18 13:45:17;;;;;;;40.90;29.88;;;13.20;99.90;;;;;;5048576;28;20141;-80
2024/03/18 13:47:43;;;;;;;42.53;29.30;;;13.30;99.90;;;;;;5048377;28;20131;-79
2024/03/18 13:50:10;;;;;;;41.85;30.27;;;13.40;99.90;;;;;;5046996;28;20051;-80
2024/03/18 13:52:36;;;;;;;39.38;27.05;;;13.40;99.90;;;;;;5044214;28;20048;-81
2024/03/18 13:55:04;;;;;;;38.47;27.25;;;13.40;99.90;;;;;;5057113;28;20052;-80
2024/03/18 13:57:33;;;;;;;41.60;28.33;;;13.50;99.90;;;;;;5062389;28;20049;-80
2024/03/18 14:00:03;;;;;;;39.47;26.42;;;13.60;99.90;;;;;;5033534;28;20055;-80
2024/03/18 14:02:30;;;;;;;39.10;24.80;;;13.60;99.90;;;;;;5053591;28;20040;-80